Terminal Aerodrome Forecast
Issued by NWS

Home | Current Version | Previous Version | Text Only | Print | Product List | Glossary On
Versions: 1 2 3 4 5 6 7 8 9 10 11 12 13 14 15 16
000
FTUS42 TJSJ 181100 RRA
TAFJSJ
TAF
TJSJ 181139Z 1812/1912 09010KT P6SM VCSH SCT025 SCT040 BKN060
      TEMPO 1812/1814 VRB10G21KT 5SM -SHRA BKN035
     FM181430 07018KT P6SM FEW025 SCT040 SCT070
     FM182300 09011KT P6SM FEW025 SCT040 BKN070=

USA.gov is the U.S. government's official web portal to all federal, state and local government web resources and services.